createdAt,value
2022-12-12T00:00:39.596Z,22.08
2022-12-12T00:03:06.184Z,23.85
2022-12-12T00:05:32.788Z,21.98
2022-12-12T00:07:59.910Z,22.15
2022-12-12T00:10:26.484Z,23.42
2022-12-12T00:12:53.011Z,21.25
2022-12-12T00:15:19.555Z,21.65
2022-12-12T00:17:46.071Z,20.90
2022-12-12T00:20:12.593Z,22.58
2022-12-12T00:22:39.130Z,21.85
2022-12-12T00:25:06.149Z,21.98
2022-12-12T00:27:33.488Z,22.30
2022-12-12T00:30:00.199Z,21.85
2022-12-12T00:32:26.806Z,20.60
2022-12-12T00:34:53.294Z,22.15
2022-12-12T00:37:19.933Z,22.95
2022-12-12T00:39:46.462Z,20.45
2022-12-12T00:42:13.102Z,23.08
2022-12-12T00:44:39.771Z,21.63
2022-12-12T00:47:06.583Z,22.42
2022-12-12T00:49:33.341Z,21.80
2022-12-12T00:51:59.835Z,19.90
2022-12-12T00:54:26.365Z,22.27
2022-12-12T00:56:52.908Z,22.42
2022-12-12T00:59:19.812Z,20.45
2022-12-12T01:01:46.991Z,21.65
2022-12-12T01:04:13.541Z,23.05
2022-12-12T01:06:40.167Z,22.35
2022-12-12T01:09:06.674Z,22.30
2022-12-12T01:11:33.241Z,21.80
2022-12-12T01:13:59.800Z,21.70
2022-12-12T01:16:26.381Z,20.70
2022-12-12T01:18:53.354Z,21.70
2022-12-12T01:21:20.618Z,24.80
2022-12-12T01:23:47.518Z,21.33
2022-12-12T01:26:19.929Z,23.20
2022-12-12T01:28:46.870Z,22.85
2022-12-12T01:31:14.070Z,21.27
2022-12-12T01:33:45.745Z,22.33
2022-12-12T01:36:16.412Z,23.15
2022-12-12T01:38:47.246Z,23.88
2022-12-12T01:41:14.323Z,24.08
2022-12-12T01:43:40.917Z,22.20
2022-12-12T01:46:31.017Z,21.10
2022-12-12T01:49:12.998Z,23.53
2022-12-12T01:51:40.272Z,21.77
2022-12-12T01:54:10.644Z,22.58
2022-12-12T01:56:38.727Z,23.00
2022-12-12T01:59:07.837Z,23.15
2022-12-12T02:01:34.736Z,22.23
2022-12-12T02:04:01.930Z,23.27
2022-12-12T02:06:29.905Z,23.30
2022-12-12T02:08:59.648Z,24.08
2022-12-12T02:11:28.346Z,23.33
2022-12-12T02:13:54.915Z,21.98
2022-12-12T02:16:40.168Z,23.80
2022-12-12T02:19:34.850Z,23.20
2022-12-12T02:22:10.095Z,25.83
2022-12-12T02:25:10.235Z,23.50
2022-12-12T02:28:14.180Z,24.00
2022-12-12T02:30:56.207Z,22.45
2022-12-12T02:33:37.772Z,21.80
2022-12-12T02:36:07.221Z,22.38
2022-12-12T02:38:43.624Z,22.33
2022-12-12T02:41:38.494Z,23.15
2022-12-12T02:44:18.275Z,24.33
2022-12-12T02:47:09.198Z,23.88
2022-12-12T02:50:01.076Z,23.45
2022-12-12T02:52:27.711Z,23.13
2022-12-12T02:54:54.199Z,24.23
2022-12-12T02:57:23.238Z,24.08
2022-12-12T02:59:58.611Z,24.00
2022-12-12T03:03:14.110Z,24.08
2022-12-12T03:06:11.589Z,24.63
2022-12-12T03:08:45.400Z,24.52
2022-12-12T03:11:15.362Z,24.15
2022-12-12T03:14:12.334Z,23.15
2022-12-12T03:16:49.189Z,26.02
2022-12-12T03:19:25.845Z,23.42
2022-12-12T03:21:57.555Z,22.17
2022-12-12T03:24:30.207Z,24.98
2022-12-12T03:27:10.993Z,25.63
2022-12-12T03:29:46.311Z,25.88
2022-12-12T03:32:21.756Z,26.75
2022-12-12T03:35:02.762Z,23.92
2022-12-12T03:40:09.143Z,23.92
2022-12-12T03:42:40.487Z,25.83
2022-12-12T03:45:12.610Z,26.55
2022-12-12T03:47:46.843Z,28.45
2022-12-12T03:50:35.495Z,27.85
2022-12-12T03:53:24.050Z,24.58
2022-12-12T03:55:57.064Z,25.38
2022-12-12T03:58:27.880Z,24.73
2022-12-12T04:00:56.985Z,24.02
2022-12-12T04:03:33.148Z,23.40
2022-12-12T04:06:28.528Z,26.00
2022-12-12T04:09:17.697Z,23.75
2022-12-12T04:12:15.733Z,24.83
2022-12-12T04:15:00.461Z,24.15
2022-12-12T04:17:36.547Z,24.17
2022-12-12T04:20:28.729Z,26.23
2022-12-12T04:23:15.861Z,23.83
2022-12-12T04:26:26.137Z,24.67
2022-12-12T04:29:07.028Z,20.92
2022-12-12T04:31:37.530Z,21.15
2022-12-12T04:34:08.151Z,21.80
2022-12-12T04:36:35.420Z,22.60
2022-12-12T04:39:02.813Z,22.13
2022-12-12T04:41:32.061Z,22.73
2022-12-12T04:43:59.697Z,21.60
2022-12-12T04:46:28.418Z,22.85
2022-12-12T04:48:58.798Z,20.73
2022-12-12T04:51:47.537Z,20.65
2022-12-12T04:54:55.327Z,18.52
2022-12-12T04:57:27.267Z,20.52
2022-12-12T04:59:53.866Z,20.98
2022-12-12T05:02:27.033Z,18.80
2022-12-12T05:04:58.229Z,20.10
2022-12-12T05:07:32.837Z,18.88
2022-12-12T05:10:01.932Z,19.40
2022-12-12T05:12:28.653Z,18.00
2022-12-12T05:14:55.247Z,19.35
2022-12-12T05:17:27.055Z,18.70
2022-12-12T05:19:53.573Z,18.10
2022-12-12T05:22:20.211Z,18.42
2022-12-12T05:24:46.772Z,17.23
2022-12-12T05:27:13.309Z,16.80
2022-12-12T05:29:39.902Z,17.15
2022-12-12T05:32:06.534Z,15.40
2022-12-12T05:34:33.073Z,14.40
2022-12-12T05:37:00.816Z,14.20
2022-12-12T05:39:28.488Z,13.60
2022-12-12T05:41:55.103Z,13.25
2022-12-12T05:44:21.756Z,14.05
2022-12-12T05:46:48.281Z,12.80
2022-12-12T05:49:14.905Z,12.05
2022-12-12T05:51:41.821Z,11.63
2022-12-12T05:54:08.597Z,11.35
2022-12-12T05:56:35.099Z,10.98
2022-12-12T05:59:01.710Z,10.27
2022-12-12T06:01:28.298Z,10.40
2022-12-12T06:03:54.875Z,9.85
2022-12-12T06:06:21.507Z,10.20
2022-12-12T06:08:47.997Z,10.82
2022-12-12T06:11:14.543Z,10.45
2022-12-12T06:13:41.092Z,11.07
2022-12-12T06:16:09.274Z,9.80
2022-12-12T06:18:36.263Z,10.13
2022-12-12T06:21:08.065Z,9.95
2022-12-12T06:23:39.182Z,9.48
2022-12-12T06:26:06.925Z,9.98
2022-12-12T06:28:33.506Z,9.23
2022-12-12T06:31:00.055Z,10.20
2022-12-12T06:33:27.629Z,17.50
2022-12-12T06:36:02.456Z,10.93
2022-12-12T06:38:29.962Z,9.68
2022-12-12T06:40:56.644Z,9.57
2022-12-12T06:43:23.853Z,9.25
2022-12-12T06:45:50.454Z,9.60
2022-12-12T06:48:17.017Z,9.30
2022-12-12T06:50:44.820Z,9.73
2022-12-12T06:53:12.789Z,9.48
2022-12-12T06:55:43.067Z,9.85
2022-12-12T06:58:09.908Z,9.93
2022-12-12T07:00:36.701Z,10.13
2022-12-12T07:03:03.403Z,10.40
2022-12-12T07:05:29.985Z,10.15
2022-12-12T07:07:56.681Z,10.88
2022-12-12T07:10:23.322Z,10.35
2022-12-12T07:12:54.628Z,11.10
2022-12-12T07:15:23.828Z,10.05
2022-12-12T07:17:53.813Z,10.68
2022-12-12T07:20:20.830Z,9.18
2022-12-12T07:22:47.337Z,9.80
2022-12-12T07:25:14.315Z,10.50
2022-12-12T07:27:41.255Z,10.27
2022-12-12T07:30:08.575Z,9.40
2022-12-12T07:32:35.075Z,11.70
2022-12-12T07:35:01.605Z,9.93
2022-12-12T07:37:28.160Z,10.63
2022-12-12T07:39:54.764Z,10.15
2022-12-12T07:42:21.342Z,10.30
2022-12-12T07:44:48.783Z,9.65
2022-12-12T07:47:15.762Z,10.93
2022-12-12T07:49:42.309Z,9.70
2022-12-12T07:52:08.881Z,10.35
2022-12-12T07:54:35.414Z,9.55
2022-12-12T07:57:01.997Z,10.05
2022-12-12T07:59:28.568Z,9.52
2022-12-12T08:01:55.225Z,9.50
2022-12-12T08:04:21.911Z,10.70
2022-12-12T08:06:49.993Z,9.82
2022-12-12T08:09:18.151Z,9.77
2022-12-12T08:11:46.414Z,10.63
2022-12-12T08:14:13.545Z,9.75
2022-12-12T08:16:40.181Z,10.63
2022-12-12T08:19:06.913Z,10.35
2022-12-12T08:21:33.762Z,9.80
2022-12-12T08:24:02.144Z,10.48
2022-12-12T08:26:29.540Z,10.63
2022-12-12T08:28:57.138Z,9.10
2022-12-12T08:31:24.181Z,9.98
2022-12-12T08:33:51.180Z,10.30
2022-12-12T08:36:36.844Z,9.45
2022-12-12T08:39:16.046Z,9.82
2022-12-12T08:41:44.442Z,10.15
2022-12-12T08:44:11.688Z,10.50
2022-12-12T08:46:39.090Z,8.88
2022-12-12T08:49:05.701Z,9.70
2022-12-12T08:51:32.312Z,8.50
2022-12-12T08:53:58.854Z,8.80
2022-12-12T08:56:25.535Z,8.90
2022-12-12T08:58:52.253Z,7.85
2022-12-12T09:01:24.694Z,8.75
2022-12-12T09:03:52.513Z,8.23
2022-12-12T09:06:19.198Z,7.43
2022-12-12T09:08:46.063Z,7.80
2022-12-12T09:11:13.144Z,8.73
2022-12-12T09:13:40.133Z,7.68
2022-12-12T09:16:09.191Z,7.68
2022-12-12T09:18:36.510Z,7.65
2022-12-12T09:21:03.417Z,7.68
2022-12-12T09:23:30.085Z,7.82
2022-12-12T09:25:56.763Z,7.97
2022-12-12T09:28:24.829Z,7.18
2022-12-12T09:30:51.543Z,6.97
2022-12-12T09:33:19.043Z,7.38
2022-12-12T09:35:45.869Z,8.02
2022-12-12T09:38:14.648Z,6.43
2022-12-12T09:41:00.533Z,6.57
2022-12-12T09:43:35.451Z,6.35
2022-12-12T09:46:03.186Z,6.72
2022-12-12T09:48:37.715Z,6.00
2022-12-12T09:51:04.522Z,6.60
2022-12-12T09:53:31.148Z,6.18
2022-12-12T09:56:03.850Z,6.65
2022-12-12T09:58:44.985Z,5.90
2022-12-12T10:01:50.042Z,6.15
2022-12-12T10:04:25.796Z,6.03
2022-12-12T10:06:52.211Z,5.85
2022-12-12T10:09:45.008Z,6.18
2022-12-12T10:12:13.847Z,6.35
2022-12-12T10:14:50.086Z,5.75
2022-12-12T10:17:21.484Z,5.75
2022-12-12T10:19:51.801Z,5.72
2022-12-12T10:22:38.311Z,6.22
2022-12-12T10:25:17.811Z,6.25
2022-12-12T10:27:44.318Z,5.45
2022-12-12T10:30:17.194Z,5.47
2022-12-12T10:32:52.810Z,6.05
2022-12-12T10:35:47.102Z,5.63
2022-12-12T10:38:26.102Z,5.78
2022-12-12T10:41:06.114Z,6.40
2022-12-12T10:44:07.967Z,7.57
2022-12-12T10:46:46.329Z,6.03
2022-12-12T10:49:18.416Z,6.93
2022-12-12T10:51:47.758Z,7.25
2022-12-12T10:54:28.098Z,7.40
2022-12-12T10:57:05.301Z,7.43
2022-12-12T10:59:48.011Z,7.10
2022-12-12T11:02:39.877Z,8.15
2022-12-12T11:05:30.139Z,6.95
2022-12-12T11:08:03.804Z,7.50
2022-12-12T11:10:37.680Z,7.53
2022-12-12T11:13:10.346Z,7.55
2022-12-12T11:16:01.831Z,7.00
2022-12-12T11:18:29.569Z,7.93
2022-12-12T11:21:03.791Z,7.50
2022-12-12T11:23:30.866Z,6.88
2022-12-12T11:26:22.681Z,6.95
2022-12-12T11:28:59.346Z,6.65
2022-12-12T11:31:30.752Z,7.25
2022-12-12T11:34:00.091Z,7.40
2022-12-12T11:36:35.907Z,7.40
2022-12-12T11:39:16.983Z,7.68
2022-12-12T11:44:31.864Z,7.93
2022-12-12T11:47:19.592Z,8.57
2022-12-12T11:50:10.992Z,7.95
2022-12-12T11:52:37.876Z,8.23
2022-12-12T11:55:07.056Z,8.15
2022-12-12T11:57:52.374Z,8.27
2022-12-12T12:00:23.584Z,9.85
2022-12-12T12:03:12.409Z,10.23
2022-12-12T12:06:01.026Z,9.52
2022-12-12T12:08:50.419Z,10.15
2022-12-12T12:11:41.923Z,9.90
2022-12-12T12:14:26.573Z,9.90
2022-12-12T12:17:15.988Z,9.80
2022-12-12T12:20:13.729Z,10.60
2022-12-12T12:23:02.039Z,10.40
2022-12-12T12:25:40.801Z,9.43
2022-12-12T12:28:35.978Z,8.35
2022-12-12T12:31:19.237Z,8.82
2022-12-12T12:33:58.319Z,9.57
2022-12-12T12:36:31.140Z,8.80
2022-12-12T12:39:13.742Z,8.45
2022-12-12T12:41:55.406Z,9.25
2022-12-12T12:44:31.515Z,9.18
2022-12-12T12:47:12.540Z,9.10
2022-12-12T12:49:40.203Z,8.77
2022-12-12T12:52:10.795Z,7.57
2022-12-12T12:54:40.448Z,7.90
2022-12-12T12:57:30.455Z,7.85
2022-12-12T13:00:05.530Z,8.70
2022-12-12T13:02:50.269Z,8.95
2022-12-12T13:05:23.043Z,8.88
2022-12-12T13:08:05.906Z,8.40
2022-12-12T13:10:33.098Z,8.13
2022-12-12T13:13:31.329Z,7.82
2022-12-12T13:16:01.525Z,9.18
2022-12-12T13:18:41.851Z,9.43
2022-12-12T13:21:21.364Z,8.85
2022-12-12T13:24:12.415Z,8.80
2022-12-12T13:26:52.303Z,8.75
2022-12-12T13:29:47.036Z,9.95
2022-12-12T13:32:37.672Z,10.77
2022-12-12T13:35:11.726Z,9.55
2022-12-12T13:37:50.142Z,9.82
2022-12-12T13:40:30.351Z,10.77
2022-12-12T13:43:09.548Z,10.82
2022-12-12T13:45:42.909Z,11.20
2022-12-12T13:48:38.195Z,11.30
2022-12-12T13:51:28.758Z,10.20
2022-12-12T13:54:12.008Z,11.25
2022-12-12T13:56:44.822Z,11.27
2022-12-12T13:59:23.557Z,12.05
2022-12-12T14:02:01.017Z,10.00
2022-12-12T14:04:35.688Z,10.95
2022-12-12T14:07:18.061Z,12.10
2022-12-12T14:09:49.095Z,11.60
2022-12-12T14:12:29.216Z,11.77
2022-12-12T14:15:01.366Z,12.35
2022-12-12T14:17:30.704Z,11.00
2022-12-12T14:19:58.922Z,12.27
2022-12-12T14:22:38.179Z,11.68
2022-12-12T14:25:19.385Z,11.95
2022-12-12T14:27:51.825Z,13.13
2022-12-12T14:30:22.271Z,14.05
2022-12-12T14:32:59.637Z,10.45
2022-12-12T14:35:41.101Z,11.65
2022-12-12T14:38:27.871Z,13.35
2022-12-12T14:40:59.357Z,12.07
2022-12-12T14:43:28.159Z,13.35
2022-12-12T14:45:59.195Z,12.10
2022-12-12T14:48:33.845Z,13.75
2022-12-12T14:51:09.507Z,13.63
2022-12-12T14:53:38.272Z,13.90
2022-12-12T14:56:23.097Z,13.25
2022-12-12T14:59:26.194Z,12.85
2022-12-12T15:01:55.064Z,13.10
2022-12-12T15:04:25.674Z,12.63
2022-12-12T15:06:54.243Z,13.60
2022-12-12T15:09:35.089Z,12.00
2022-12-12T15:12:10.864Z,12.82
2022-12-12T15:14:39.444Z,12.80
2022-12-12T15:17:14.791Z,12.93
2022-12-12T15:19:43.802Z,11.73
2022-12-12T15:22:15.816Z,13.07
2022-12-12T15:24:42.501Z,14.15
2022-12-12T15:27:18.774Z,13.25
2022-12-12T15:29:45.515Z,12.48
2022-12-12T15:32:23.021Z,11.45
2022-12-12T15:35:14.168Z,12.57
2022-12-12T15:37:40.726Z,11.60
2022-12-12T15:40:09.329Z,11.68
2022-12-12T15:42:37.162Z,12.57
2022-12-12T15:45:05.268Z,11.65
2022-12-12T15:47:31.944Z,11.63
2022-12-12T15:50:13.217Z,11.07
2022-12-12T15:52:40.079Z,11.43
2022-12-12T15:55:07.473Z,11.52
2022-12-12T15:57:47.477Z,11.55
2022-12-12T16:00:32.120Z,11.60
2022-12-12T16:03:18.032Z,11.02
2022-12-12T16:05:44.637Z,11.02
2022-12-12T16:08:31.717Z,11.35
2022-12-12T16:11:01.108Z,12.93
2022-12-12T16:13:39.709Z,11.15
2022-12-12T16:16:38.828Z,11.18
2022-12-12T16:19:16.219Z,10.90
2022-12-12T16:21:42.954Z,11.43
2022-12-12T16:24:12.925Z,11.35
2022-12-12T16:26:39.424Z,11.67
2022-12-12T16:29:05.943Z,11.80
2022-12-12T16:31:32.478Z,12.35
2022-12-12T16:34:02.963Z,13.25
2022-12-12T16:36:29.706Z,11.25
2022-12-12T16:38:56.370Z,10.98
2022-12-12T16:41:23.025Z,11.82
2022-12-12T16:43:49.678Z,12.63
2022-12-12T16:46:21.815Z,11.60
2022-12-12T16:48:48.735Z,10.73
2022-12-12T16:51:17.801Z,11.73
2022-12-12T16:53:44.584Z,11.98
2022-12-12T16:56:12.105Z,11.52
2022-12-12T16:58:39.042Z,11.48
2022-12-12T17:01:05.990Z,11.23
2022-12-12T17:03:32.919Z,24.92
2022-12-12T17:05:59.944Z,11.27
2022-12-12T17:08:27.051Z,11.70
2022-12-12T17:11:09.587Z,10.25
2022-12-12T17:13:38.268Z,10.98
2022-12-12T17:16:04.965Z,11.13
2022-12-12T17:18:31.478Z,11.13
2022-12-12T17:20:58.098Z,10.80
2022-12-12T17:23:27.398Z,9.20
2022-12-12T17:26:00.764Z,9.77
2022-12-12T17:28:29.420Z,9.23
2022-12-12T17:30:55.938Z,10.48
2022-12-12T17:33:22.430Z,10.70
2022-12-12T17:36:00.974Z,10.43
2022-12-12T17:38:27.645Z,10.90
2022-12-12T17:40:56.654Z,9.43
2022-12-12T17:43:24.571Z,9.45
2022-12-12T17:46:01.882Z,9.57
2022-12-12T17:48:30.565Z,10.02
2022-12-12T17:51:01.964Z,10.13
2022-12-12T17:53:36.502Z,10.75
2022-12-12T17:56:16.442Z,10.77
2022-12-12T17:58:44.767Z,10.55
2022-12-12T18:01:24.111Z,11.82
2022-12-12T18:03:51.033Z,11.25
2022-12-12T18:06:18.841Z,11.85
2022-12-12T18:08:46.843Z,12.18
2022-12-12T18:11:15.968Z,11.93
2022-12-12T18:13:42.889Z,12.02
2022-12-12T18:16:12.784Z,12.43
2022-12-12T18:18:39.795Z,11.97
2022-12-12T18:21:12.875Z,13.10
2022-12-12T18:23:42.658Z,13.50
2022-12-12T18:26:12.517Z,14.30
2022-12-12T18:28:41.814Z,14.05
2022-12-12T18:31:09.277Z,13.95
2022-12-12T18:33:36.336Z,13.05
2022-12-12T18:36:08.067Z,12.50
2022-12-12T18:38:35.313Z,12.25
2022-12-12T18:41:02.596Z,13.18
2022-12-12T18:43:30.087Z,12.32
2022-12-12T18:46:02.492Z,12.82
2022-12-12T18:48:30.827Z,12.98
2022-12-12T18:51:05.114Z,11.30
2022-12-12T18:53:31.816Z,12.32
2022-12-12T18:55:58.488Z,12.05
2022-12-12T18:58:25.090Z,12.95
2022-12-12T19:00:51.787Z,12.10
2022-12-12T19:03:19.155Z,19.83
2022-12-12T19:05:45.819Z,12.40
2022-12-12T19:08:12.413Z,12.73
2022-12-12T19:10:38.975Z,12.25
2022-12-12T19:13:05.519Z,11.50
2022-12-12T19:15:32.026Z,13.15
2022-12-12T19:17:58.529Z,12.20
2022-12-12T19:20:25.245Z,11.75
2022-12-12T19:22:51.718Z,12.68
2022-12-12T19:25:18.924Z,12.50
2022-12-12T19:27:45.537Z,14.48
2022-12-12T19:30:13.449Z,13.35
2022-12-12T19:32:41.353Z,13.50
2022-12-12T19:35:08.310Z,14.00
2022-12-12T19:37:36.098Z,13.73
2022-12-12T19:40:02.632Z,14.32
2022-12-12T19:42:29.116Z,14.30
2022-12-12T19:44:55.687Z,14.20
2022-12-12T19:47:22.202Z,15.07
2022-12-12T19:49:49.242Z,14.57
2022-12-12T19:52:16.451Z,15.57
2022-12-12T19:54:42.967Z,21.20
2022-12-12T19:57:09.704Z,15.48
2022-12-12T19:59:36.313Z,14.85
2022-12-12T20:02:05.449Z,17.23
2022-12-12T20:04:32.585Z,16.92
2022-12-12T20:06:59.136Z,18.42
2022-12-12T20:09:27.761Z,17.52
2022-12-12T20:11:55.564Z,18.15
2022-12-12T20:14:24.985Z,18.75
2022-12-12T20:16:52.784Z,18.63
2022-12-12T20:19:19.800Z,20.83
2022-12-12T20:22:04.047Z,19.80
2022-12-12T20:24:32.476Z,21.63
2022-12-12T20:26:59.576Z,21.15
2022-12-12T20:29:26.534Z,21.58
2022-12-12T20:31:53.618Z,21.63
2022-12-12T20:34:24.852Z,23.92
2022-12-12T20:36:52.516Z,22.20
2022-12-12T20:39:20.909Z,22.15
2022-12-12T20:41:48.782Z,22.23
2022-12-12T20:44:15.633Z,22.88
2022-12-12T20:46:44.483Z,21.60
2022-12-12T20:49:14.910Z,22.50
2022-12-12T20:51:58.340Z,22.58
2022-12-12T20:54:27.286Z,22.33
2022-12-12T20:56:54.472Z,22.23
2022-12-12T20:59:21.314Z,29.05
2022-12-12T21:01:48.142Z,22.42
2022-12-12T21:04:15.320Z,22.40
2022-12-12T21:06:47.856Z,22.00
2022-12-12T21:09:22.741Z,22.45
2022-12-12T21:11:50.450Z,20.27
2022-12-12T21:14:17.225Z,21.15
2022-12-12T21:16:43.766Z,21.10
2022-12-12T21:19:13.040Z,22.48
2022-12-12T21:21:40.577Z,19.75
2022-12-12T21:24:07.394Z,20.45
2022-12-12T21:26:34.209Z,20.42
2022-12-12T21:29:01.925Z,19.58
2022-12-12T21:31:30.949Z,20.05
2022-12-12T21:33:57.902Z,18.95
2022-12-12T21:36:25.692Z,17.88
2022-12-12T21:38:52.853Z,17.50
2022-12-12T21:41:20.690Z,17.98
2022-12-12T21:43:47.652Z,16.77
2022-12-12T21:46:16.437Z,14.02
2022-12-12T21:48:43.336Z,15.48
2022-12-12T21:51:13.966Z,15.32
2022-12-12T21:53:41.659Z,15.60
2022-12-12T21:56:15.918Z,15.23
2022-12-12T21:58:43.660Z,14.70
2022-12-12T22:01:20.693Z,16.27
2022-12-12T22:03:48.404Z,15.95
2022-12-12T22:06:17.290Z,15.65
2022-12-12T22:08:44.177Z,16.40
2022-12-12T22:11:11.164Z,14.80
2022-12-12T22:13:40.336Z,14.40
2022-12-12T22:16:17.864Z,15.10
2022-12-12T22:18:46.714Z,14.20
2022-12-12T22:21:15.844Z,14.35
2022-12-12T22:23:42.827Z,15.93
2022-12-12T22:26:16.013Z,15.30
2022-12-12T22:28:42.826Z,15.30
2022-12-12T22:31:09.810Z,14.23
2022-12-12T22:33:36.366Z,16.90
2022-12-12T22:36:07.249Z,15.35
2022-12-12T22:38:38.046Z,16.48
2022-12-12T22:41:06.431Z,15.00
2022-12-12T22:43:35.951Z,15.32
2022-12-12T22:46:06.658Z,14.43
2022-12-12T22:48:34.190Z,12.88
2022-12-12T22:51:10.718Z,12.90
2022-12-12T22:53:42.501Z,12.18
2022-12-12T22:56:10.965Z,11.48
2022-12-12T22:58:37.498Z,11.70
2022-12-12T23:01:17.942Z,12.13
2022-12-12T23:03:44.943Z,11.75
2022-12-12T23:06:17.332Z,13.48
2022-12-12T23:08:48.272Z,12.80
2022-12-12T23:13:44.291Z,12.80
2022-12-12T23:16:16.337Z,12.32
2022-12-12T23:18:43.958Z,12.52
2022-12-12T23:21:16.666Z,11.98
2022-12-12T23:23:44.088Z,14.00
2022-12-12T23:26:16.610Z,14.85
2022-12-12T23:28:43.407Z,15.77
2022-12-12T23:31:11.546Z,15.88
2022-12-12T23:33:38.788Z,17.90
2022-12-12T23:36:08.020Z,15.77
2022-12-12T23:38:34.566Z,16.23
2022-12-12T23:41:08.969Z,15.02
2022-12-12T23:43:35.783Z,15.88
2022-12-12T23:46:06.232Z,16.63
2022-12-12T23:48:33.616Z,15.07
2022-12-12T23:51:00.394Z,16.25
2022-12-12T23:53:27.471Z,15.15
2022-12-12T23:55:53.966Z,15.52
2022-12-12T23:58:20.456Z,15.27
